sensor_id;sensor_type;location;lat;lon;timestamp;pressure;altitude;pressure_sealevel;temperature;humidity
19112;BME280;9688;51.906;8.376;2023-08-21T00:00:02;101387.28;;;20.85;90.48
19112;BME280;9688;51.906;8.376;2023-08-21T00:02:49;101382.13;;;20.82;90.59
19112;BME280;9688;51.906;8.376;2023-08-21T00:05:35;101390.28;;;20.80;90.86
19112;BME280;9688;51.906;8.376;2023-08-21T00:08:20;101391.56;;;20.75;91.31
19112;BME280;9688;51.906;8.376;2023-08-21T00:11:06;101382.97;;;20.69;91.40
19112;BME280;9688;51.906;8.376;2023-08-21T00:13:52;101385.22;;;20.63;92.25
19112;BME280;9688;51.906;8.376;2023-08-21T00:16:39;101379.22;;;20.59;92.15
19112;BME280;9688;51.906;8.376;2023-08-21T00:19:25;101384.03;;;20.54;92.52
19112;BME280;9688;51.906;8.376;2023-08-21T00:22:11;101391.72;;;20.46;92.90
19112;BME280;9688;51.906;8.376;2023-08-21T00:24:57;101380.44;;;20.41;93.11
19112;BME280;9688;51.906;8.376;2023-08-21T00:27:42;101381.69;;;20.35;93.19
19112;BME280;9688;51.906;8.376;2023-08-21T00:30:28;101380.06;;;20.33;93.64
19112;BME280;9688;51.906;8.376;2023-08-21T00:33:15;101377.69;;;20.28;94.08
19112;BME280;9688;51.906;8.376;2023-08-21T00:36:01;101388.00;;;20.21;94.58
19112;BME280;9688;51.906;8.376;2023-08-21T00:38:47;101392.72;;;20.18;95.14
19112;BME280;9688;51.906;8.376;2023-08-21T00:41:33;101389.47;;;20.13;95.45
19112;BME280;9688;51.906;8.376;2023-08-21T00:44:18;101392.44;;;20.08;95.93
19112;BME280;9688;51.906;8.376;2023-08-21T00:47:05;101392.09;;;20.00;96.33
19112;BME280;9688;51.906;8.376;2023-08-21T00:49:52;101385.22;;;19.96;96.67
19112;BME280;9688;51.906;8.376;2023-08-21T00:52:38;101381.69;;;19.95;97.11
19112;BME280;9688;51.906;8.376;2023-08-21T00:55:25;101381.75;;;19.94;97.16
19112;BME280;9688;51.906;8.376;2023-08-21T00:58:11;101384.53;;;19.92;97.14
19112;BME280;9688;51.906;8.376;2023-08-21T01:00:57;101386.47;;;19.90;97.13
19112;BME280;9688;51.906;8.376;2023-08-21T01:03:45;101389.25;;;19.89;97.44
19112;BME280;9688;51.906;8.376;2023-08-21T01:06:32;101397.41;;;19.87;97.76
19112;BME280;9688;51.906;8.376;2023-08-21T01:09:23;101400.09;;;19.87;97.74
19112;BME280;9688;51.906;8.376;2023-08-21T01:12:17;101401.69;;;19.90;97.43
19112;BME280;9688;51.906;8.376;2023-08-21T01:15:08;101403.16;;;19.95;97.56
19112;BME280;9688;51.906;8.376;2023-08-21T01:17:55;101389.53;;;19.98;97.10
19112;BME280;9688;51.906;8.376;2023-08-21T01:20:41;101386.50;;;20.03;96.62
19112;BME280;9688;51.906;8.376;2023-08-21T01:23:31;101392.56;;;20.07;96.46
19112;BME280;9688;51.906;8.376;2023-08-21T01:26:17;101409.53;;;20.07;96.59
19112;BME280;9688;51.906;8.376;2023-08-21T01:29:02;101405.88;;;20.08;96.86
19112;BME280;9688;51.906;8.376;2023-08-21T01:31:53;101404.91;;;20.09;96.83
19112;BME280;9688;51.906;8.376;2023-08-21T01:34:42;101412.09;;;20.09;96.82
19112;BME280;9688;51.906;8.376;2023-08-21T01:37:29;101404.03;;;20.09;96.84
19112;BME280;9688;51.906;8.376;2023-08-21T01:40:21;101383.63;;;20.06;96.92
19112;BME280;9688;51.906;8.376;2023-08-21T01:43:07;101391.81;;;20.04;96.80
19112;BME280;9688;51.906;8.376;2023-08-21T01:45:52;101388.13;;;20.05;96.55
19112;BME280;9688;51.906;8.376;2023-08-21T01:48:38;101392.66;;;20.05;96.42
19112;BME280;9688;51.906;8.376;2023-08-21T01:51:27;101392.84;;;20.02;96.29
19112;BME280;9688;51.906;8.376;2023-08-21T01:54:14;101394.69;;;20.01;96.36
19112;BME280;9688;51.906;8.376;2023-08-21T01:57:01;101400.91;;;20.02;96.31
19112;BME280;9688;51.906;8.376;2023-08-21T01:59:48;101403.38;;;20.05;96.51
19112;BME280;9688;51.906;8.376;2023-08-21T02:02:33;101400.91;;;20.02;96.39
19112;BME280;9688;51.906;8.376;2023-08-21T02:05:19;101399.09;;;20.02;96.14
19112;BME280;9688;51.906;8.376;2023-08-21T02:08:05;101403.47;;;20.03;96.21
19112;BME280;9688;51.906;8.376;2023-08-21T02:10:51;101396.09;;;20.07;95.91
19112;BME280;9688;51.906;8.376;2023-08-21T02:13:38;101394.06;;;20.11;95.96
19112;BME280;9688;51.906;8.376;2023-08-21T02:16:24;101392.03;;;20.14;95.70
19112;BME280;9688;51.906;8.376;2023-08-21T02:19:09;101395.50;;;20.16;95.65
19112;BME280;9688;51.906;8.376;2023-08-21T02:21:55;101393.66;;;20.17;95.41
19112;BME280;9688;51.906;8.376;2023-08-21T02:24:41;101388.28;;;20.17;95.20
19112;BME280;9688;51.906;8.376;2023-08-21T02:27:27;101393.56;;;20.18;95.11
19112;BME280;9688;51.906;8.376;2023-08-21T02:30:14;101383.78;;;20.17;95.21
19112;BME280;9688;51.906;8.376;2023-08-21T02:32:59;101389.16;;;20.17;95.47
19112;BME280;9688;51.906;8.376;2023-08-21T02:35:45;101392.38;;;20.22;95.31
19112;BME280;9688;51.906;8.376;2023-08-21T02:38:31;101399.28;;;20.26;94.78
19112;BME280;9688;51.906;8.376;2023-08-21T02:41:16;101397.38;;;20.28;94.89
19112;BME280;9688;51.906;8.376;2023-08-21T02:44:03;101390.06;;;20.31;95.02
19112;BME280;9688;51.906;8.376;2023-08-21T02:46:50;101388.03;;;20.34;94.98
19112;BME280;9688;51.906;8.376;2023-08-21T02:49:35;101390.53;;;20.37;94.96
19112;BME280;9688;51.906;8.376;2023-08-21T02:52:21;101402.75;;;20.41;94.78
19112;BME280;9688;51.906;8.376;2023-08-21T02:55:07;101400.84;;;20.43;94.61
19112;BME280;9688;51.906;8.376;2023-08-21T02:57:53;101406.97;;;20.45;94.68
19112;BME280;9688;51.906;8.376;2023-08-21T03:00:38;101397.09;;;20.46;94.80
19112;BME280;9688;51.906;8.376;2023-08-21T03:03:25;101383.53;;;20.47;94.80
19112;BME280;9688;51.906;8.376;2023-08-21T03:06:10;101400.44;;;20.49;94.60
19112;BME280;9688;51.906;8.376;2023-08-21T03:08:56;101395.16;;;20.48;94.70
19112;BME280;9688;51.906;8.376;2023-08-21T03:11:42;101401.28;;;20.50;94.86
19112;BME280;9688;51.906;8.376;2023-08-21T03:14:28;101408.41;;;20.51;95.03
19112;BME280;9688;51.906;8.376;2023-08-21T03:17:13;101406.66;;;20.50;94.97
19112;BME280;9688;51.906;8.376;2023-08-21T03:20:01;101407.41;;;20.52;95.04
19112;BME280;9688;51.906;8.376;2023-08-21T03:22:48;101392.09;;;20.54;94.88
19112;BME280;9688;51.906;8.376;2023-08-21T03:25:34;101393.81;;;20.55;94.82
19112;BME280;9688;51.906;8.376;2023-08-21T03:28:19;101391.28;;;20.52;95.08
19112;BME280;9688;51.906;8.376;2023-08-21T03:31:05;101390.66;;;20.48;94.93
19112;BME280;9688;51.906;8.376;2023-08-21T03:33:51;101377.72;;;20.41;95.28
19112;BME280;9688;51.906;8.376;2023-08-21T03:36:37;101378.88;;;20.37;95.36
19112;BME280;9688;51.906;8.376;2023-08-21T03:39:23;101375.69;;;20.32;95.62
19112;BME280;9688;51.906;8.376;2023-08-21T03:42:09;101376.75;;;20.29;95.89
19112;BME280;9688;51.906;8.376;2023-08-21T03:44:55;101380.59;;;20.25;96.58
19112;BME280;9688;51.906;8.376;2023-08-21T03:47:40;101380.03;;;20.20;96.97
19112;BME280;9688;51.906;8.376;2023-08-21T03:50:26;101379.50;;;20.15;97.68
19112;BME280;9688;51.906;8.376;2023-08-21T03:53:13;101370.47;;;20.16;97.78
19112;BME280;9688;51.906;8.376;2023-08-21T03:55:59;101375.84;;;20.16;98.08
19112;BME280;9688;51.906;8.376;2023-08-21T03:58:45;101376.69;;;20.16;98.30
19112;BME280;9688;51.906;8.376;2023-08-21T04:01:32;101383.03;;;20.15;98.54
19112;BME280;9688;51.906;8.376;2023-08-21T04:04:17;101389.25;;;20.16;98.53
19112;BME280;9688;51.906;8.376;2023-08-21T04:07:04;101384.66;;;20.18;98.59
19112;BME280;9688;51.906;8.376;2023-08-21T04:09:51;101391.81;;;20.17;98.76
19112;BME280;9688;51.906;8.376;2023-08-21T04:12:37;101395.28;;;20.19;98.90
19112;BME280;9688;51.906;8.376;2023-08-21T04:15:23;101396.81;;;20.23;99.04
19112;BME280;9688;51.906;8.376;2023-08-21T04:18:08;101399.38;;;20.25;99.17
19112;BME280;9688;51.906;8.376;2023-08-21T04:20:54;101407.22;;;20.28;98.93
19112;BME280;9688;51.906;8.376;2023-08-21T04:23:41;101406.28;;;20.29;98.67
19112;BME280;9688;51.906;8.376;2023-08-21T04:26:28;101415.84;;;20.33;99.15
19112;BME280;9688;51.906;8.376;2023-08-21T04:29:13;101422.06;;;20.34;98.69
19112;BME280;9688;51.906;8.376;2023-08-21T04:31:59;101412.22;;;20.34;98.36
19112;BME280;9688;51.906;8.376;2023-08-21T04:34:45;101411.03;;;20.38;98.29
19112;BME280;9688;51.906;8.376;2023-08-21T04:37:30;101415.53;;;20.38;98.02
19112;BME280;9688;51.906;8.376;2023-08-21T04:40:17;101418.22;;;20.38;97.62
19112;BME280;9688;51.906;8.376;2023-08-21T04:43:06;101416.31;;;20.40;97.48
19112;BME280;9688;51.906;8.376;2023-08-21T04:45:52;101425.88;;;20.44;97.22
19112;BME280;9688;51.906;8.376;2023-08-21T04:48:38;101434.38;;;20.50;97.17
19112;BME280;9688;51.906;8.376;2023-08-21T04:51:23;101431.69;;;20.50;97.28
19112;BME280;9688;51.906;8.376;2023-08-21T04:54:10;101413.97;;;20.48;97.37
19112;BME280;9688;51.906;8.376;2023-08-21T04:56:56;101399.66;;;20.47;97.45
19112;BME280;9688;51.906;8.376;2023-08-21T04:59:43;101394.19;;;20.49;97.20
19112;BME280;9688;51.906;8.376;2023-08-21T05:02:29;101403.78;;;20.53;96.46
19112;BME280;9688;51.906;8.376;2023-08-21T05:05:15;101407.16;;;20.57;95.69
19112;BME280;9688;51.906;8.376;2023-08-21T05:08:01;101411.13;;;20.64;94.93
19112;BME280;9688;51.906;8.376;2023-08-21T05:10:46;101421.06;;;20.76;93.98
19112;BME280;9688;51.906;8.376;2023-08-21T05:13:32;101432.13;;;20.84;93.20
19112;BME280;9688;51.906;8.376;2023-08-21T05:16:19;101439.13;;;20.87;92.92
19112;BME280;9688;51.906;8.376;2023-08-21T05:19:05;101447.94;;;20.89;92.95
19112;BME280;9688;51.906;8.376;2023-08-21T05:21:52;101434.19;;;20.93;92.64
19112;BME280;9688;51.906;8.376;2023-08-21T05:24:37;101410.19;;;21.03;92.59
19112;BME280;9688;51.906;8.376;2023-08-21T05:27:23;101399.88;;;20.97;92.71
19112;BME280;9688;51.906;8.376;2023-08-21T05:30:10;101401.84;;;20.95;92.54
19112;BME280;9688;51.906;8.376;2023-08-21T05:32:57;101410.75;;;20.96;92.28
19112;BME280;9688;51.906;8.376;2023-08-21T05:35:43;101417.84;;;20.97;92.15
19112;BME280;9688;51.906;8.376;2023-08-21T05:38:29;101414.06;;;20.99;92.13
19112;BME280;9688;51.906;8.376;2023-08-21T05:41:15;101420.09;;;21.03;91.70
19112;BME280;9688;51.906;8.376;2023-08-21T05:44:01;101422.25;;;21.10;91.57
19112;BME280;9688;51.906;8.376;2023-08-21T05:46:47;101423.34;;;21.21;91.08
19112;BME280;9688;51.906;8.376;2023-08-21T05:49:34;101427.41;;;21.26;90.33
19112;BME280;9688;51.906;8.376;2023-08-21T05:52:21;101432.81;;;21.39;89.57
19112;BME280;9688;51.906;8.376;2023-08-21T05:55:07;101431.94;;;21.51;88.77
19112;BME280;9688;51.906;8.376;2023-08-21T05:57:53;101433.53;;;21.67;88.41
19112;BME280;9688;51.906;8.376;2023-08-21T06:00:40;101434.69;;;21.75;87.84
19112;BME280;9688;51.906;8.376;2023-08-21T06:03:28;101437.81;;;21.82;87.31
19112;BME280;9688;51.906;8.376;2023-08-21T06:06:15;101432.59;;;21.92;86.68
19112;BME280;9688;51.906;8.376;2023-08-21T06:09:01;101437.19;;;22.02;86.09
19112;BME280;9688;51.906;8.376;2023-08-21T06:11:48;101427.25;;;22.16;85.44
19112;BME280;9688;51.906;8.376;2023-08-21T06:14:35;101423.88;;;22.25;85.11
19112;BME280;9688;51.906;8.376;2023-08-21T06:17:20;101437.53;;;22.35;84.74
19112;BME280;9688;51.906;8.376;2023-08-21T06:20:07;101426.28;;;22.41;84.27
19112;BME280;9688;51.906;8.376;2023-08-21T06:22:56;101429.78;;;22.54;84.13
19112;BME280;9688;51.906;8.376;2023-08-21T06:25:42;101422.72;;;22.64;83.36
19112;BME280;9688;51.906;8.376;2023-08-21T06:28:29;101426.03;;;22.68;83.18
19112;BME280;9688;51.906;8.376;2023-08-21T06:31:15;101427.63;;;22.70;82.98
19112;BME280;9688;51.906;8.376;2023-08-21T06:34:01;101427.75;;;22.69;83.62
19112;BME280;9688;51.906;8.376;2023-08-21T06:36:47;101438.81;;;22.77;83.40
19112;BME280;9688;51.906;8.376;2023-08-21T06:39:37;101434.19;;;22.90;83.01
19112;BME280;9688;51.906;8.376;2023-08-21T06:42:24;101441.13;;;23.06;83.32
19112;BME280;9688;51.906;8.376;2023-08-21T06:45:10;101437.09;;;23.11;83.00
19112;BME280;9688;51.906;8.376;2023-08-21T06:47:56;101445.63;;;23.05;83.06
19112;BME280;9688;51.906;8.376;2023-08-21T06:50:41;101438.03;;;22.99;83.14
19112;BME280;9688;51.906;8.376;2023-08-21T06:53:27;101432.63;;;22.99;83.57
19112;BME280;9688;51.906;8.376;2023-08-21T06:56:15;101427.66;;;23.06;83.38
19112;BME280;9688;51.906;8.376;2023-08-21T06:59:00;101430.69;;;23.12;82.51
19112;BME280;9688;51.906;8.376;2023-08-21T07:01:46;101435.13;;;23.25;81.48
19112;BME280;9688;51.906;8.376;2023-08-21T07:04:32;101444.34;;;23.45;80.24
19112;BME280;9688;51.906;8.376;2023-08-21T07:07:18;101446.81;;;23.59;79.39
19112;BME280;9688;51.906;8.376;2023-08-21T07:10:06;101447.75;;;23.69;78.46
19112;BME280;9688;51.906;8.376;2023-08-21T07:12:54;101448.66;;;23.81;77.78
19112;BME280;9688;51.906;8.376;2023-08-21T07:15:39;101447.28;;;23.98;77.17
19112;BME280;9688;51.906;8.376;2023-08-21T07:18:25;101448.63;;;24.03;75.97
19112;BME280;9688;51.906;8.376;2023-08-21T07:21:11;101441.75;;;23.99;75.26
19112;BME280;9688;51.906;8.376;2023-08-21T07:23:57;101447.78;;;24.03;75.11
19112;BME280;9688;51.906;8.376;2023-08-21T07:26:43;101442.63;;;24.00;74.41
19112;BME280;9688;51.906;8.376;2023-08-21T07:29:31;101444.59;;;23.98;74.14
19112;BME280;9688;51.906;8.376;2023-08-21T07:32:16;101443.97;;;24.06;73.55
19112;BME280;9688;51.906;8.376;2023-08-21T07:35:03;101436.72;;;24.06;73.17
19112;BME280;9688;51.906;8.376;2023-08-21T07:37:49;101447.16;;;23.99;73.06
19112;BME280;9688;51.906;8.376;2023-08-21T07:40:35;101449.25;;;23.96;72.76
19112;BME280;9688;51.906;8.376;2023-08-21T07:43:21;101454.41;;;23.99;72.29
19112;BME280;9688;51.906;8.376;2023-08-21T07:46:10;101449.25;;;23.96;72.02
19112;BME280;9688;51.906;8.376;2023-08-21T07:49:00;101455.50;;;23.96;71.47
19112;BME280;9688;51.906;8.376;2023-08-21T07:51:46;101458.09;;;23.98;70.77
19112;BME280;9688;51.906;8.376;2023-08-21T07:54:32;101450.47;;;24.03;70.87
19112;BME280;9688;51.906;8.376;2023-08-21T07:57:18;101452.94;;;24.06;69.98
19112;BME280;9688;51.906;8.376;2023-08-21T08:00:04;101456.97;;;24.12;69.79
19112;BME280;9688;51.906;8.376;2023-08-21T08:02:57;101437.16;;;24.22;69.44
19112;BME280;9688;51.906;8.376;2023-08-21T08:05:44;101450.75;;;24.32;69.52
19112;BME280;9688;51.906;8.376;2023-08-21T08:08:29;101457.13;;;24.42;69.20
19112;BME280;9688;51.906;8.376;2023-08-21T08:11:15;101451.09;;;24.50;69.17
19112;BME280;9688;51.906;8.376;2023-08-21T08:14:04;101454.34;;;24.65;68.85
19112;BME280;9688;51.906;8.376;2023-08-21T08:16:50;101452.44;;;24.77;67.84
19112;BME280;9688;51.906;8.376;2023-08-21T08:19:37;101446.38;;;24.84;67.90
19112;BME280;9688;51.906;8.376;2023-08-21T08:22:23;101441.63;;;24.98;68.08
19112;BME280;9688;51.906;8.376;2023-08-21T08:25:09;101444.81;;;25.03;68.04
19112;BME280;9688;51.906;8.376;2023-08-21T08:27:55;101445.31;;;24.97;68.06
19112;BME280;9688;51.906;8.376;2023-08-21T08:30:41;101445.25;;;25.08;67.60
19112;BME280;9688;51.906;8.376;2023-08-21T08:33:27;101445.47;;;25.16;66.63
19112;BME280;9688;51.906;8.376;2023-08-21T08:36:14;101446.78;;;25.22;66.51
19112;BME280;9688;51.906;8.376;2023-08-21T08:39:00;101450.03;;;25.46;66.15
19112;BME280;9688;51.906;8.376;2023-08-21T08:41:53;101442.28;;;25.63;65.51
19112;BME280;9688;51.906;8.376;2023-08-21T08:44:40;101448.19;;;25.77;65.51
19112;BME280;9688;51.906;8.376;2023-08-21T08:47:26;101442.59;;;26.00;64.93
19112;BME280;9688;51.906;8.376;2023-08-21T08:50:12;101440.44;;;26.13;64.62
19112;BME280;9688;51.906;8.376;2023-08-21T08:53:01;101438.91;;;26.30;64.23
19112;BME280;9688;51.906;8.376;2023-08-21T08:55:48;101433.34;;;26.32;63.63
19112;BME280;9688;51.906;8.376;2023-08-21T08:58:34;101425.50;;;26.19;64.06
19112;BME280;9688;51.906;8.376;2023-08-21T09:01:21;101433.91;;;26.25;63.99
19112;BME280;9688;51.906;8.376;2023-08-21T09:04:07;101428.34;;;26.17;63.94
19112;BME280;9688;51.906;8.376;2023-08-21T09:07:06;101431.63;;;26.21;64.33
19112;BME280;9688;51.906;8.376;2023-08-21T09:09:53;101434.75;;;26.07;64.62
19112;BME280;9688;51.906;8.376;2023-08-21T09:12:40;101439.16;;;26.08;64.85
19112;BME280;9688;51.906;8.376;2023-08-21T09:15:28;101430.34;;;26.35;64.83
19112;BME280;9688;51.906;8.376;2023-08-21T09:18:16;101431.66;;;26.60;63.37
19112;BME280;9688;51.906;8.376;2023-08-21T09:21:02;101427.38;;;26.67;63.46
19112;BME280;9688;51.906;8.376;2023-08-21T09:23:48;101424.25;;;26.62;63.23
19112;BME280;9688;51.906;8.376;2023-08-21T09:26:37;101418.81;;;26.52;63.47
19112;BME280;9688;51.906;8.376;2023-08-21T09:29:23;101422.22;;;26.44;63.90
19112;BME280;9688;51.906;8.376;2023-08-21T09:32:09;101421.50;;;26.42;64.12
19112;BME280;9688;51.906;8.376;2023-08-21T09:34:56;101418.50;;;26.45;64.25
19112;BME280;9688;51.906;8.376;2023-08-21T09:37:46;101420.38;;;26.45;64.85
19112;BME280;9688;51.906;8.376;2023-08-21T09:40:33;101421.22;;;26.36;65.08
19112;BME280;9688;51.906;8.376;2023-08-21T09:43:22;101422.94;;;26.37;64.80
19112;BME280;9688;51.906;8.376;2023-08-21T09:46:08;101424.66;;;26.47;64.91
19112;BME280;9688;51.906;8.376;2023-08-21T09:48:54;101419.94;;;26.50;64.98
19112;BME280;9688;51.906;8.376;2023-08-21T09:51:40;101425.38;;;26.59;64.54
19112;BME280;9688;51.906;8.376;2023-08-21T09:54:27;101424.38;;;26.60;64.18
19112;BME280;9688;51.906;8.376;2023-08-21T09:57:14;101421.22;;;26.45;64.23
19112;BME280;9688;51.906;8.376;2023-08-21T10:00:03;101420.50;;;26.34;64.70
19112;BME280;9688;51.906;8.376;2023-08-21T10:03:01;101417.78;;;26.34;64.63
19112;BME280;9688;51.906;8.376;2023-08-21T10:05:48;101417.09;;;26.41;64.76
19112;BME280;9688;51.906;8.376;2023-08-21T10:08:37;101418.09;;;26.60;64.32
19112;BME280;9688;51.906;8.376;2023-08-21T10:11:24;101425.09;;;26.62;64.32
19112;BME280;9688;51.906;8.376;2023-08-21T10:14:11;101420.38;;;26.64;63.88
19112;BME280;9688;51.906;8.376;2023-08-21T10:16:58;101422.81;;;26.67;63.55
19112;BME280;9688;51.906;8.376;2023-08-21T10:19:51;101420.66;;;26.71;64.01
19112;BME280;9688;51.906;8.376;2023-08-21T10:22:41;101414.22;;;26.82;64.15
19112;BME280;9688;51.906;8.376;2023-08-21T10:25:27;101420.06;;;26.97;63.82
19112;BME280;9688;51.906;8.376;2023-08-21T10:28:13;101403.31;;;27.01;63.73
19112;BME280;9688;51.906;8.376;2023-08-21T10:31:25;101417.06;;;27.00;63.01
19112;BME280;9688;51.906;8.376;2023-08-21T10:34:13;101410.75;;;26.99;62.87
19112;BME280;9688;51.906;8.376;2023-08-21T10:37:06;101412.91;;;26.96;62.35
19112;BME280;9688;51.906;8.376;2023-08-21T10:39:56;101401.63;;;27.00;62.73
19112;BME280;9688;51.906;8.376;2023-08-21T10:42:41;101404.59;;;27.07;62.87
19112;BME280;9688;51.906;8.376;2023-08-21T10:45:28;101400.59;;;27.11;62.41
19112;BME280;9688;51.906;8.376;2023-08-21T10:48:14;101415.59;;;27.25;61.80
19112;BME280;9688;51.906;8.376;2023-08-21T10:51:03;101408.69;;;27.30;62.43
19112;BME280;9688;51.906;8.376;2023-08-21T10:53:50;101401.72;;;27.55;62.19
19112;BME280;9688;51.906;8.376;2023-08-21T10:56:36;101398.50;;;27.70;61.36
19112;BME280;9688;51.906;8.376;2023-08-21T10:59:21;101400.69;;;27.66;61.51
19112;BME280;9688;51.906;8.376;2023-08-21T11:02:07;101392.75;;;27.45;61.63
19112;BME280;9688;51.906;8.376;2023-08-21T11:04:53;101399.03;;;27.46;61.48
19112;BME280;9688;51.906;8.376;2023-08-21T11:07:43;101395.34;;;27.47;60.86
19112;BME280;9688;51.906;8.376;2023-08-21T11:10:31;101390.13;;;27.26;61.70
19112;BME280;9688;51.906;8.376;2023-08-21T11:13:18;101391.16;;;27.25;61.79
19112;BME280;9688;51.906;8.376;2023-08-21T11:16:05;101379.06;;;27.37;62.00
19112;BME280;9688;51.906;8.376;2023-08-21T11:18:53;101383.59;;;27.46;61.37
19112;BME280;9688;51.906;8.376;2023-08-21T11:21:41;101398.16;;;27.55;60.82
19112;BME280;9688;51.906;8.376;2023-08-21T11:24:39;101395.44;;;27.55;60.65
19112;BME280;9688;51.906;8.376;2023-08-21T11:27:25;101394.31;;;27.48;60.84
19112;BME280;9688;51.906;8.376;2023-08-21T11:30:12;101395.44;;;27.55;60.75
19112;BME280;9688;51.906;8.376;2023-08-21T11:33:05;101391.50;;;27.67;60.76
19112;BME280;9688;51.906;8.376;2023-08-21T11:35:53;101394.94;;;27.69;59.80
19112;BME280;9688;51.906;8.376;2023-08-21T11:38:41;101393.97;;;27.61;59.64
19112;BME280;9688;51.906;8.376;2023-08-21T11:41:29;101386.38;;;27.64;59.88
19112;BME280;9688;51.906;8.376;2023-08-21T11:44:15;101389.31;;;27.71;60.09
19112;BME280;9688;51.906;8.376;2023-08-21T11:47:01;101379.44;;;27.79;60.41
19112;BME280;9688;51.906;8.376;2023-08-21T11:49:48;101386.38;;;27.92;60.15
19112;BME280;9688;51.906;8.376;2023-08-21T11:52:37;101385.75;;;27.98;59.33
19112;BME280;9688;51.906;8.376;2023-08-21T11:55:23;101380.31;;;27.98;59.16
19112;BME280;9688;51.906;8.376;2023-08-21T11:58:10;101385.31;;;28.02;59.46
19112;BME280;9688;51.906;8.376;2023-08-21T12:01:02;101385.38;;;27.93;58.62
19112;BME280;9688;51.906;8.376;2023-08-21T12:03:49;101383.59;;;27.74;59.80
19112;BME280;9688;51.906;8.376;2023-08-21T12:06:44;101392.97;;;27.89;59.49
19112;BME280;9688;51.906;8.376;2023-08-21T12:09:30;101385.44;;;28.01;59.72
19112;BME280;9688;51.906;8.376;2023-08-21T12:12:16;101385.13;;;28.04;59.63
19112;BME280;9688;51.906;8.376;2023-08-21T12:15:04;101379.56;;;28.06;59.36
19112;BME280;9688;51.906;8.376;2023-08-21T12:17:50;101379.88;;;28.20;59.57
19112;BME280;9688;51.906;8.376;2023-08-21T12:20:35;101382.91;;;28.35;58.60
19112;BME280;9688;51.906;8.376;2023-08-21T12:23:21;101381.44;;;28.41;59.07
19112;BME280;9688;51.906;8.376;2023-08-21T12:26:07;101390.38;;;28.33;58.48
19112;BME280;9688;51.906;8.376;2023-08-21T12:28:53;101386.16;;;28.21;58.84
19112;BME280;9688;51.906;8.376;2023-08-21T12:31:41;101376.38;;;28.28;58.35
19112;BME280;9688;51.906;8.376;2023-08-21T12:34:26;101392.22;;;28.33;58.31
19112;BME280;9688;51.906;8.376;2023-08-21T12:37:13;101378.31;;;28.36;57.59
19112;BME280;9688;51.906;8.376;2023-08-21T12:39:59;101379.88;;;28.38;57.20
19112;BME280;9688;51.906;8.376;2023-08-21T12:42:45;101382.75;;;28.19;58.16
19112;BME280;9688;51.906;8.376;2023-08-21T12:45:31;101374.34;;;28.12;58.32
19112;BME280;9688;51.906;8.376;2023-08-21T12:48:18;101371.16;;;28.17;57.58
19112;BME280;9688;51.906;8.376;2023-08-21T12:51:04;101369.63;;;28.14;58.17
19112;BME280;9688;51.906;8.376;2023-08-21T12:53:50;101369.31;;;28.17;57.96
19112;BME280;9688;51.906;8.376;2023-08-21T12:56:36;101360.19;;;28.27;57.68
19112;BME280;9688;51.906;8.376;2023-08-21T12:59:21;101365.09;;;28.23;57.15
19112;BME280;9688;51.906;8.376;2023-08-21T13:02:08;101357.63;;;28.07;57.51
19112;BME280;9688;51.906;8.376;2023-08-21T13:04:56;101360.00;;;28.02;58.01
19112;BME280;9688;51.906;8.376;2023-08-21T13:07:41;101356.41;;;28.01;58.04
19112;BME280;9688;51.906;8.376;2023-08-21T13:10:28;101363.00;;;28.17;57.00
19112;BME280;9688;51.906;8.376;2023-08-21T13:13:14;101362.47;;;28.13;57.35
19112;BME280;9688;51.906;8.376;2023-08-21T13:15:59;101353.44;;;28.13;57.11
19112;BME280;9688;51.906;8.376;2023-08-21T13:18:46;101348.00;;;28.13;56.87
19112;BME280;9688;51.906;8.376;2023-08-21T13:21:33;101343.81;;;28.36;57.21
19112;BME280;9688;51.906;8.376;2023-08-21T13:24:19;101351.44;;;28.51;56.38
19112;BME280;9688;51.906;8.376;2023-08-21T13:27:06;101349.94;;;28.38;57.32
19112;BME280;9688;51.906;8.376;2023-08-21T13:29:52;101354.09;;;28.24;57.19
19112;BME280;9688;51.906;8.376;2023-08-21T13:32:38;101357.03;;;28.13;58.00
19112;BME280;9688;51.906;8.376;2023-08-21T13:35:24;101356.97;;;28.05;58.07
19112;BME280;9688;51.906;8.376;2023-08-21T13:38:12;101349.03;;;28.12;57.63
19112;BME280;9688;51.906;8.376;2023-08-21T13:40:57;101346.84;;;28.15;58.50
19112;BME280;9688;51.906;8.376;2023-08-21T13:43:43;101346.69;;;28.17;58.03
19112;BME280;9688;51.906;8.376;2023-08-21T13:46:29;101352.66;;;28.20;58.13
19112;BME280;9688;51.906;8.376;2023-08-21T13:49:16;101344.59;;;28.29;57.96
19112;BME280;9688;51.906;8.376;2023-08-21T13:52:01;101352.75;;;28.29;57.87
19112;BME280;9688;51.906;8.376;2023-08-21T13:54:48;101361.22;;;28.25;58.27
19112;BME280;9688;51.906;8.376;2023-08-21T13:57:34;101344.59;;;28.29;58.37
19112;BME280;9688;51.906;8.376;2023-08-21T14:00:20;101350.25;;;28.53;57.33
19112;BME280;9688;51.906;8.376;2023-08-21T14:03:06;101351.34;;;28.60;57.00
19112;BME280;9688;51.906;8.376;2023-08-21T14:05:52;101344.94;;;28.69;56.92
19112;BME280;9688;51.906;8.376;2023-08-21T14:08:38;101337.09;;;28.66;56.98
19112;BME280;9688;51.906;8.376;2023-08-21T14:11:25;101329.19;;;28.55;57.06
19112;BME280;9688;51.906;8.376;2023-08-21T14:14:12;101323.28;;;28.42;57.60
19112;BME280;9688;51.906;8.376;2023-08-21T14:16:58;101315.00;;;28.43;57.72
19112;BME280;9688;51.906;8.376;2023-08-21T14:19:44;101303.81;;;28.46;57.35
19112;BME280;9688;51.906;8.376;2023-08-21T14:22:30;101300.75;;;28.50;57.40
19112;BME280;9688;51.906;8.376;2023-08-21T14:25:16;101312.50;;;28.50;57.53
19112;BME280;9688;51.906;8.376;2023-08-21T14:28:04;101317.03;;;28.67;56.80
19112;BME280;9688;51.906;8.376;2023-08-21T14:30:51;101319.38;;;28.88;56.79
19112;BME280;9688;51.906;8.376;2023-08-21T14:33:37;101315.28;;;28.92;56.83
19112;BME280;9688;51.906;8.376;2023-08-21T14:36:23;101311.22;;;28.88;57.18
19112;BME280;9688;51.906;8.376;2023-08-21T14:39:09;101315.75;;;28.80;57.11
19112;BME280;9688;51.906;8.376;2023-08-21T14:41:57;101318.00;;;28.58;58.21